M I D A S
Marine Information and Data Acquisition System
Tripno 2276 of the Zeeleeuw from 2012-03-15 07:47:01 to 2012-03-15 15:21:42
Back to CruiseResearch ActivitiesStationsMapUnderway DataData graphs

EquipmentUnitsComment
TimeDGPSUTC
LatitudeDGPSDM.mWGS84
LongitudeDGPSDM.mWGS84
HeadingGyrodeg 
SOGDGPSknotsSpeed over ground
COGDGPSdegCourse over ground
DepthEcho soundermeters200 kHz
Missing or incorrect values are displayed as -999
Navigation data collected by the RV Zeeleeuw from 2012-03-15 06:55:46 to 2012-03-15 15:38:40
                                                                                    Next 1000 lines
Time Latitude Longitude Heading SOG COG Depth
2012-03-15 06:55:55 51°13.634 2°56.02 126.2 0.1 206 -999
2012-03-15 06:56:01 51°13.634 2°56.019 126.2 0.2 200 -999
2012-03-15 06:56:06 51°13.634 2°56.019 126.2 0.2 204 -999
2012-03-15 06:56:11 51°13.635 2°56.019 126.2 -999 264 -999
2012-03-15 06:56:16 51°13.635 2°56.019 126.2 -999 22 -999
2012-03-15 06:56:20 51°13.635 2°56.019 126.2 -999 212 -999
2012-03-15 06:56:25 51°13.635 2°56.019 126.2 -999 209 -999
2012-03-15 06:56:31 51°13.635 2°56.019 126.3 -999 183 -999
2012-03-15 06:56:36 51°13.635 2°56.018 126.3 -999 197 -999
2012-03-15 06:56:41 51°13.635 2°56.018 126.3 0.1 8 -999
2012-03-15 06:56:46 51°13.635 2°56.018 126.3 0.1 16 -999
2012-03-15 06:56:51 51°13.635 2°56.018 126.3 0.1 194 -999
2012-03-15 06:56:56 51°13.635 2°56.019 126.3 0.1 209 -999
2012-03-15 06:57:00 51°13.635 2°56.019 126.3 0.1 206 -999
2012-03-15 06:57:05 51°13.636 2°56.019 126.3 0.1 1 -999
2012-03-15 06:57:11 51°13.636 2°56.019 126.3 -999 346 -999
2012-03-15 06:57:15 51°13.636 2°56.019 126.3 -999 173 -999
2012-03-15 06:57:21 51°13.635 2°56.019 126.3 0.2 191 -999
2012-03-15 06:57:26 51°13.636 2°56.019 126.3 -999 28 -999
2012-03-15 06:57:30 51°13.636 2°56.019 126.3 0.1 16 -999
2012-03-15 06:57:36 51°13.636 2°56.019 126.2 -999 36 -999
2012-03-15 06:57:40 51°13.636 2°56.019 126.2 0.1 205 -999
2012-03-15 06:57:46 51°13.636 2°56.019 126.2 0.1 20 -999
2012-03-15 06:57:51 51°13.636 2°56.019 126.1 0.2 18 -999
2012-03-15 06:57:56 51°13.636 2°56.019 126.1 -999 214 -999
2012-03-15 06:58:01 51°13.636 2°56.019 126 0.1 201 -999
2012-03-15 06:58:06 51°13.635 2°56.019 126 0.1 219 -999
2012-03-15 06:58:11 51°13.635 2°56.019 125.9 -999 257 -999
2012-03-15 06:58:16 51°13.635 2°56.018 125.9 0.1 204 -999
2012-03-15 06:58:20 51°13.635 2°56.019 125.9 -999 244 -999
2012-03-15 06:58:25 51°13.635 2°56.019 125.9 -999 90 -999
2012-03-15 06:58:31 51°13.635 2°56.018 125.9 -999 151 -999
2012-03-15 06:58:36 51°13.635 2°56.018 125.9 -999 169 -999
2012-03-15 06:58:40 51°13.635 2°56.018 125.9 0.1 202 -999
2012-03-15 06:58:46 51°13.635 2°56.018 125.9 0.1 200 -999
2012-03-15 06:58:51 51°13.635 2°56.018 125.9 0.1 202 -999
2012-03-15 06:58:56 51°13.635 2°56.019 125.9 0.1 7 -999
2012-03-15 06:59:00 51°13.635 2°56.019 125.9 0.1 15 -999
2012-03-15 06:59:05 51°13.635 2°56.018 126 0.1 191 -999
2012-03-15 06:59:11 51°13.635 2°56.019 126.1 0.1 15 -999
2012-03-15 06:59:16 51°13.635 2°56.019 126.2 0.2 207 -999
2012-03-15 06:59:21 51°13.636 2°56.019 126.2 -999 260 -999
2012-03-15 06:59:25 51°13.636 2°56.019 126.3 0.2 26 -999
2012-03-15 06:59:31 51°13.636 2°56.019 126.4 -999 219 -999
2012-03-15 06:59:36 51°13.636 2°56.019 126.4 -999 248 -999
2012-03-15 06:59:41 51°13.636 2°56.018 126.4 0.2 12 -999
2012-03-15 06:59:46 51°13.636 2°56.018 126.4 0.1 3 -999
2012-03-15 06:59:51 51°13.635 2°56.018 126.5 0.2 203 -999
2012-03-15 06:59:56 51°13.635 2°56.018 126.5 0.2 207 -999
2012-03-15 07:00:01 51°13.636 2°56.018 126.5 0.1 11 -999
2012-03-15 07:00:06 51°13.635 2°56.018 126.4 0.1 217 -999
2012-03-15 07:00:11 51°13.635 2°56.018 126.1 0.3 204 -999
2012-03-15 07:00:15 51°13.635 2°56.018 125.9 0.2 207 -999
2012-03-15 07:00:21 51°13.636 2°56.018 125.7 -999 280 -999
2012-03-15 07:00:26 51°13.636 2°56.018 125.6 -999 217 -999
2012-03-15 07:00:31 51°13.635 2°56.018 125.3 0.1 200 -999
2012-03-15 07:00:36 51°13.636 2°56.018 125.2 0.1 202 -999
2012-03-15 07:00:41 51°13.635 2°56.018 125 0.1 207 -999
2012-03-15 07:00:46 51°13.636 2°56.018 124.9 0.1 206 -999
2012-03-15 07:00:51 51°13.636 2°56.019 124.9 -999 1 -999
2012-03-15 07:00:56 51°13.636 2°56.019 124.9 0.1 31 -999
2012-03-15 07:01:00 51°13.636 2°56.019 124.9 0.1 13 -999
2012-03-15 07:01:06 51°13.636 2°56.019 124.9 -999 13 -999
2012-03-15 07:01:10 51°13.636 2°56.019 124.9 0.1 38 -999
2012-03-15 07:01:15 51°13.636 2°56.019 124.9 -999 57 -999
2012-03-15 07:01:21 51°13.636 2°56.019 125.1 -999 11 -999
2012-03-15 07:01:26 51°13.636 2°56.018 125.2 -999 358 -999
2012-03-15 07:01:31 51°13.636 2°56.019 125.3 0.1 17 -999
2012-03-15 07:01:36 51°13.636 2°56.019 125.4 -999 26 -999
2012-03-15 07:01:41 51°13.636 2°56.019 125.4 0.1 27 -999
2012-03-15 07:01:46 51°13.636 2°56.018 125.7 -999 14 -999
2012-03-15 07:01:50 51°13.636 2°56.018 125.8 -999 198 -999
2012-03-15 07:01:55 51°13.636 2°56.019 125.9 0.1 20 -999
2012-03-15 07:02:01 51°13.636 2°56.019 126 0.2 17 -999
2012-03-15 07:02:06 51°13.636 2°56.019 126 -999 309 -999
2012-03-15 07:02:11 51°13.636 2°56.019 126.1 -999 220 -999
2012-03-15 07:02:16 51°13.636 2°56.019 126.1 -999 18 -999
2012-03-15 07:02:21 51°13.636 2°56.019 126.1 -999 330 -999
2012-03-15 07:02:26 51°13.636 2°56.019 126.1 0.1 205 -999
2012-03-15 07:02:31 51°13.636 2°56.019 126 0.1 197 -999
2012-03-15 07:02:36 51°13.636 2°56.019 125.9 0.1 196 -999
2012-03-15 07:02:40 51°13.636 2°56.019 125.9 0.1 200 -999
2012-03-15 07:02:46 51°13.637 2°56.019 126.1 0.1 30 -999
2012-03-15 07:02:51 51°13.637 2°56.02 126.4 0.1 44 -999
2012-03-15 07:02:56 51°13.636 2°56.02 126.8 -999 81 -999
2012-03-15 07:03:00 51°13.636 2°56.02 127.2 -999 190 -999
2012-03-15 07:03:05 51°13.636 2°56.02 127.6 -999 28 -999
2012-03-15 07:03:11 51°13.636 2°56.02 127.8 0.1 185 -999
2012-03-15 07:03:16 51°13.636 2°56.019 128 0.1 199 -999
2012-03-15 07:03:21 51°13.636 2°56.019 128.2 0.1 198 -999
2012-03-15 07:03:26 51°13.636 2°56.019 128.2 -999 206 -999
2012-03-15 07:03:31 51°13.636 2°56.02 128.2 0.1 15 -999
2012-03-15 07:03:36 51°13.636 2°56.019 128.2 -999 331 -999
2012-03-15 07:03:40 51°13.636 2°56.02 128.2 0.1 15 -999
2012-03-15 07:03:45 51°13.636 2°56.02 128.2 0.1 17 -999
2012-03-15 07:03:50 51°13.636 2°56.019 128.2 0.1 198 -999
2012-03-15 07:03:56 51°13.636 2°56.019 128.2 0.1 199 -999
2012-03-15 07:04:01 51°13.636 2°56.019 128.2 0.2 209 -999
2012-03-15 07:04:06 51°13.636 2°56.019 128.2 0.1 204 -999
2012-03-15 07:04:10 51°13.636 2°56.019 128.2 0.1 22 -999
2012-03-15 07:04:16 51°13.636 2°56.02 128.2 -999 20 -999
2012-03-15 07:04:21 51°13.636 2°56.02 128.2 0.2 17 -999
2012-03-15 07:04:26 51°13.636 2°56.02 128.2 0.2 18 -999
2012-03-15 07:04:31 51°13.636 2°56.02 128.2 0.1 21 -999
2012-03-15 07:04:35 51°13.636 2°56.02 128.3 -999 262 -999
2012-03-15 07:04:40 51°13.636 2°56.02 128.3 0.1 187 -999
2012-03-15 07:04:46 51°13.636 2°56.02 128.3 -999 7 -999
2012-03-15 07:04:51 51°13.636 2°56.02 128.3 0.1 26 -999
2012-03-15 07:04:56 51°13.636 2°56.02 128.3 -999 221 -999
2012-03-15 07:05:01 51°13.636 2°56.02 128.3 -999 200 -999
2012-03-15 07:05:06 51°13.636 2°56.02 128.3 0.1 19 -999
2012-03-15 07:05:11 51°13.636 2°56.02 128.3 0.1 20 -999
2012-03-15 07:05:16 51°13.636 2°56.019 128.3 -999 21 -999
2012-03-15 07:05:20 51°13.636 2°56.019 128.3 -999 220 -999
2012-03-15 07:05:26 51°13.636 2°56.019 128.3 0.1 191 -999
2012-03-15 07:05:31 51°13.636 2°56.019 128.3 0.1 24 -999
2012-03-15 07:05:36 51°13.636 2°56.019 128.3 0.1 24 -999
2012-03-15 07:05:41 51°13.636 2°56.019 128.3 -999 215 -999
2012-03-15 07:05:46 51°13.636 2°56.019 128.3 0.1 225 -999
2012-03-15 07:05:51 51°13.636 2°56.019 128.3 0.1 204 -999
2012-03-15 07:05:56 51°13.636 2°56.019 128.3 -999 194 -999
2012-03-15 07:06:01 51°13.636 2°56.019 128.3 -999 215 -999
2012-03-15 07:06:05 51°13.636 2°56.019 128.3 -999 359 -999
2012-03-15 07:06:11 51°13.636 2°56.019 128.3 -999 202 -999
2012-03-15 07:06:16 51°13.636 2°56.019 128.3 0.2 37 -999
2012-03-15 07:06:21 51°13.635 2°56.018 128.2 0.1 214 -999
2012-03-15 07:06:26 51°13.635 2°56.018 128.2 0.2 209 -999
2012-03-15 07:06:31 51°13.635 2°56.018 128.2 0.2 201 -999
2012-03-15 07:06:36 51°13.636 2°56.019 128.3 -999 48 -999
2012-03-15 07:06:41 51°13.636 2°56.019 128.4 0.1 21 -999
2012-03-15 07:06:46 51°13.636 2°56.019 128.5 -999 32 -999
2012-03-15 07:06:51 51°13.636 2°56.019 128.5 -999 173 -999
2012-03-15 07:06:56 51°13.636 2°56.019 128.6 -999 26 -999
2012-03-15 07:07:01 51°13.636 2°56.019 128.6 -999 18 -999
2012-03-15 07:07:06 51°13.636 2°56.019 128.6 -999 40 -999
2012-03-15 07:07:10 51°13.636 2°56.019 128.6 -999 151 -999
2012-03-15 07:07:16 51°13.636 2°56.019 128.6 0.1 84 -999
2012-03-15 07:07:20 51°13.636 2°56.019 128.6 0.1 119 -999
2012-03-15 07:07:26 51°13.636 2°56.019 128.6 -999 119 -999
2012-03-15 07:07:31 51°13.635 2°56.019 128.6 -999 180 -999
2012-03-15 07:07:35 51°13.635 2°56.019 128.4 -999 194 -999
2012-03-15 07:07:41 51°13.635 2°56.019 128.3 0.1 170 -999
2012-03-15 07:07:46 51°13.635 2°56.019 128.1 0.1 137 -999
2012-03-15 07:07:51 51°13.636 2°56.02 127.9 0.2 21 -999
2012-03-15 07:07:55 51°13.636 2°56.019 127.9 0.1 14 -999
2012-03-15 07:08:00 51°13.636 2°56.019 127.9 -999 351 -999
2012-03-15 07:08:06 51°13.636 2°56.019 127.9 0.1 203 -999
2012-03-15 07:08:11 51°13.635 2°56.019 128.1 0.1 206 -999
2012-03-15 07:08:16 51°13.636 2°56.019 128.3 -999 261 -999
2012-03-15 07:08:21 51°13.636 2°56.019 128.4 -999 282 -999
2012-03-15 07:08:26 51°13.636 2°56.019 128.5 -999 336 -999
2012-03-15 07:08:31 51°13.636 2°56.02 128.5 0.1 18 -999
2012-03-15 07:08:36 51°13.636 2°56.02 128.5 -999 29 -999
2012-03-15 07:08:41 51°13.636 2°56.02 128.4 0.2 23 -999
2012-03-15 07:08:46 51°13.636 2°56.02 128.2 0.2 21 -999
2012-03-15 07:08:51 51°13.636 2°56.02 128.2 -999 216 -999
2012-03-15 07:08:56 51°13.636 2°56.02 128.1 0.1 201 -999
2012-03-15 07:09:00 51°13.636 2°56.021 128.1 -999 8 -999
2012-03-15 07:09:05 51°13.636 2°56.02 128.1 0.1 206 -999
2012-03-15 07:09:10 51°13.636 2°56.021 128.1 0.2 204 -999
2012-03-15 07:09:16 51°13.636 2°56.021 128.1 0.1 204 -999
2012-03-15 07:09:21 51°13.636 2°56.021 128.1 -999 140 -999
2012-03-15 07:09:26 51°13.636 2°56.021 128.1 0.2 11 -999
2012-03-15 07:09:31 51°13.636 2°56.021 128.1 0.1 20 -999
2012-03-15 07:09:36 51°13.636 2°56.021 128.1 -999 276 -999
2012-03-15 07:09:41 51°13.636 2°56.021 128.1 0.1 222 -999
2012-03-15 07:09:46 51°13.636 2°56.021 128.1 -999 357 -999
2012-03-15 07:09:51 51°13.636 2°56.021 128.1 0.1 21 -999
2012-03-15 07:09:56 51°13.636 2°56.02 128.1 0.2 210 -999
2012-03-15 07:10:01 51°13.636 2°56.02 128.2 0.1 210 -999
2012-03-15 07:10:05 51°13.636 2°56.02 128.3 -999 16 -999
2012-03-15 07:10:11 51°13.636 2°56.02 128.3 -999 22 -999
2012-03-15 07:10:16 51°13.636 2°56.021 128.3 0.1 25 -999
2012-03-15 07:10:21 51°13.636 2°56.02 128.3 -999 205 -999
2012-03-15 07:10:26 51°13.635 2°56.02 128.3 0.2 206 -999
2012-03-15 07:10:30 51°13.636 2°56.02 128.3 0.2 209 -999
2012-03-15 07:10:36 51°13.636 2°56.02 128.3 0.1 206 -999
2012-03-15 07:10:40 51°13.636 2°56.02 128.3 0.1 200 -999
2012-03-15 07:10:46 51°13.635 2°56.019 128.3 0.2 203 -999
2012-03-15 07:10:51 51°13.635 2°56.019 128.3 0.3 200 -999
2012-03-15 07:10:56 51°13.635 2°56.019 128.3 0.2 202 -999
2012-03-15 07:11:01 51°13.636 2°56.02 128.3 0.1 18 -999
2012-03-15 07:11:06 51°13.636 2°56.02 128.3 0.2 17 -999
2012-03-15 07:11:11 51°13.636 2°56.02 128.3 0.1 10 -999
2012-03-15 07:11:16 51°13.636 2°56.019 128.3 0.1 200 -999
2012-03-15 07:11:20 51°13.636 2°56.019 128.3 -999 178 -999
2012-03-15 07:11:25 51°13.636 2°56.019 128.3 -999 89 -999
2012-03-15 07:11:31 51°13.636 2°56.019 128.3 -999 112 -999
2012-03-15 07:11:36 51°13.636 2°56.02 128.3 -999 150 -999
2012-03-15 07:11:41 51°13.636 2°56.02 128.3 0.1 100 -999
2012-03-15 07:11:46 51°13.636 2°56.019 128.3 0.1 186 -999
2012-03-15 07:11:51 51°13.635 2°56.019 128.3 0.2 197 -999
2012-03-15 07:11:56 51°13.636 2°56.019 128.3 -999 160 -999
2012-03-15 07:12:00 51°13.636 2°56.019 128.3 0.1 189 -999
2012-03-15 07:12:05 51°13.636 2°56.019 128.3 -999 82 -999
2012-03-15 07:12:10 51°13.636 2°56.02 128.3 0.1 29 -999
2012-03-15 07:12:16 51°13.636 2°56.02 128.3 -999 274 -999
2012-03-15 07:12:21 51°13.635 2°56.02 128.3 0.1 208 -999
2012-03-15 07:12:26 51°13.636 2°56.02 128.3 -999 4 -999
2012-03-15 07:12:31 51°13.636 2°56.02 128.3 0.1 17 -999
2012-03-15 07:12:36 51°13.635 2°56.02 128.3 -999 138 -999
2012-03-15 07:12:41 51°13.635 2°56.02 128.3 0.1 185 -999
2012-03-15 07:12:45 51°13.635 2°56.02 128.3 -999 309 -999
2012-03-15 07:12:51 51°13.636 2°56.02 128.3 0.3 17 -999
2012-03-15 07:12:56 51°13.636 2°56.02 128.3 0.1 352 -999
2012-03-15 07:13:01 51°13.635 2°56.02 128.3 0.1 34 -999
2012-03-15 07:13:06 51°13.635 2°56.02 128.3 0.1 228 -999
2012-03-15 07:13:10 51°13.635 2°56.02 128.3 0.1 278 -999
2012-03-15 07:13:16 51°13.635 2°56.02 128.3 0.1 198 -999
2012-03-15 07:13:21 51°13.635 2°56.02 128.3 0.1 12 -999
2012-03-15 07:13:26 51°13.635 2°56.02 128.3 0.1 254 -999
2012-03-15 07:13:30 51°13.635 2°56.02 128.3 0.1 247 -999
2012-03-15 07:13:35 51°13.635 2°56.02 128.3 0.1 20 -999
2012-03-15 07:13:40 51°13.635 2°56.02 128.3 -999 129 -999
2012-03-15 07:13:46 51°13.635 2°56.02 128.3 0.1 22 -999
2012-03-15 07:13:51 51°13.635 2°56.02 128.3 0.1 347 -999
2012-03-15 07:13:56 51°13.635 2°56.019 128.3 -999 160 -999
2012-03-15 07:14:01 51°13.635 2°56.019 128.3 -999 140 -999
2012-03-15 07:14:05 51°13.635 2°56.019 128.3 0.1 21 -999
2012-03-15 07:14:10 51°13.635 2°56.019 128.3 0.1 41 -999
2012-03-15 07:14:16 51°13.635 2°56.019 128.3 0.1 340 -999
2012-03-15 07:14:21 51°13.635 2°56.019 128.3 0.1 347 -999
2012-03-15 07:14:26 51°13.635 2°56.019 128.3 -999 260 -999
2012-03-15 07:14:31 51°13.635 2°56.019 128.3 0.1 204 -999
2012-03-15 07:14:36 51°13.635 2°56.019 128.3 0.1 203 -999
2012-03-15 07:14:40 51°13.635 2°56.019 128.3 0.1 2 -999
2012-03-15 07:14:46 51°13.636 2°56.019 128.3 0.2 15 -999
2012-03-15 07:14:51 51°13.635 2°56.019 128.3 0.1 40 -999
2012-03-15 07:14:56 51°13.635 2°56.019 128.3 -999 151 -999
2012-03-15 07:15:01 51°13.635 2°56.019 128.2 0.1 206 -999
2012-03-15 07:15:06 51°13.635 2°56.019 128.2 0.1 185 -999
2012-03-15 07:15:10 51°13.635 2°56.019 128.1 0.1 188 -999
2012-03-15 07:15:15 51°13.635 2°56.019 128.1 0.2 199 -999
2012-03-15 07:15:21 51°13.635 2°56.019 128.1 0.2 196 -999
2012-03-15 07:15:26 51°13.635 2°56.019 128.1 0.1 184 -999
2012-03-15 07:15:31 51°13.635 2°56.019 128 0.3 198 -999
2012-03-15 07:15:36 51°13.635 2°56.02 128 0.1 196 -999
2012-03-15 07:15:41 51°13.635 2°56.02 128 0.1 52 -999
2012-03-15 07:15:46 51°13.635 2°56.02 127.9 0.1 26 -999
2012-03-15 07:15:51 51°13.635 2°56.02 127.9 0.1 42 -999
2012-03-15 07:15:56 51°13.635 2°56.02 127.9 -999 359 -999
2012-03-15 07:16:01 51°13.635 2°56.02 127.8 -999 338 -999
2012-03-15 07:16:06 51°13.635 2°56.02 127.8 -999 224 -999
2012-03-15 07:16:11 51°13.635 2°56.02 127.8 -999 58 -999
2012-03-15 07:16:15 51°13.635 2°56.021 127.8 0.3 21 -999
2012-03-15 07:16:21 51°13.635 2°56.02 127.8 0.1 31 -999
2012-03-15 07:16:26 51°13.635 2°56.02 127.8 0.1 201 -999
2012-03-15 07:16:31 51°13.635 2°56.02 127.8 0.1 211 -999
2012-03-15 07:16:36 51°13.635 2°56.02 127.8 0.2 215 -999
2012-03-15 07:16:41 51°13.635 2°56.02 128 0.2 216 -999
2012-03-15 07:16:45 51°13.635 2°56.02 128.1 -999 235 -999
2012-03-15 07:16:50 51°13.635 2°56.02 128.1 0.1 196 -999
2012-03-15 07:16:56 51°13.635 2°56.02 128 0.2 203 -999
2012-03-15 07:17:01 51°13.635 2°56.02 128 -999 187 -999
2012-03-15 07:17:06 51°13.635 2°56.02 127.9 -999 249 -999
2012-03-15 07:17:11 51°13.635 2°56.02 127.9 0.1 194 -999
2012-03-15 07:17:16 51°13.635 2°56.02 127.9 -999 358 -999
2012-03-15 07:17:21 51°13.635 2°56.02 127.9 0.1 16 -999
2012-03-15 07:17:26 51°13.636 2°56.02 127.9 0.1 15 -999
2012-03-15 07:17:31 51°13.635 2°56.02 127.9 -999 325 -999
2012-03-15 07:17:36 51°13.635 2°56.02 127.9 -999 236 -999
2012-03-15 07:17:41 51°13.635 2°56.02 127.9 -999 258 -999
2012-03-15 07:17:46 51°13.636 2°56.02 127.9 0.1 33 -999
2012-03-15 07:17:50 51°13.635 2°56.02 127.9 -999 13 -999
2012-03-15 07:17:56 51°13.636 2°56.02 127.9 0.1 43 -999
2012-03-15 07:18:01 51°13.635 2°56.02 127.9 -999 119 -999
2012-03-15 07:18:06 51°13.636 2°56.02 127.9 -999 279 -999
2012-03-15 07:18:11 51°13.635 2°56.02 127.9 0.1 225 -999
2012-03-15 07:18:16 51°13.635 2°56.02 127.9 0.1 203 -999
2012-03-15 07:18:20 51°13.636 2°56.02 127.9 -999 297 -999
2012-03-15 07:18:26 51°13.636 2°56.02 127.9 -999 25 -999
2012-03-15 07:18:31 51°13.635 2°56.02 127.9 0.1 226 -999
2012-03-15 07:18:36 51°13.636 2°56.02 127.9 0.1 28 -999
2012-03-15 07:18:40 51°13.636 2°56.02 127.9 0.1 73 -999
2012-03-15 07:18:46 51°13.635 2°56.019 127.9 0.1 176 -999
2012-03-15 07:18:51 51°13.635 2°56.019 127.9 0.1 225 -999
2012-03-15 07:18:55 51°13.635 2°56.019 127.9 0.2 213 -999
2012-03-15 07:19:00 51°13.636 2°56.02 127.9 -999 166 -999
2012-03-15 07:19:05 51°13.636 2°56.02 127.9 -999 30 -999
2012-03-15 07:19:11 51°13.636 2°56.02 127.9 -999 188 -999
2012-03-15 07:19:16 51°13.636 2°56.02 127.9 0.1 172 -999
2012-03-15 07:19:21 51°13.636 2°56.02 127.9 0.1 211 -999
2012-03-15 07:19:26 51°13.636 2°56.02 127.9 -999 20 -999
2012-03-15 07:19:31 51°13.636 2°56.02 127.9 0.1 30 -999
2012-03-15 07:19:36 51°13.636 2°56.02 127.9 -999 16 -999
2012-03-15 07:19:41 51°13.636 2°56.02 127.9 0.1 195 -999
2012-03-15 07:19:46 51°13.636 2°56.02 127.9 0.1 22 -999
2012-03-15 07:19:51 51°13.636 2°56.02 127.9 -999 101 -999
2012-03-15 07:19:56 51°13.636 2°56.02 127.9 -999 162 -999
2012-03-15 07:20:01 51°13.636 2°56.02 127.9 -999 232 -999
2012-03-15 07:20:05 51°13.636 2°56.02 127.9 -999 23 -999
2012-03-15 07:20:11 51°13.636 2°56.02 127.9 -999 18 -999
2012-03-15 07:20:16 51°13.636 2°56.02 127.9 -999 203 -999
2012-03-15 07:20:21 51°13.636 2°56.02 127.9 0.1 27 -999
2012-03-15 07:20:26 51°13.636 2°56.02 127.9 0.1 358 -999
2012-03-15 07:20:31 51°13.636 2°56.02 127.9 0.1 359 -999
2012-03-15 07:20:36 51°13.636 2°56.02 127.9 0.1 242 -999
2012-03-15 07:20:41 51°13.636 2°56.02 127.9 0.2 11 -999
2012-03-15 07:20:46 51°13.636 2°56.02 127.9 0.2 11 -999
2012-03-15 07:20:51 51°13.636 2°56.02 127.9 0.1 -999 -999
2012-03-15 07:20:56 51°13.636 2°56.019 127.9 0.1 215 -999
2012-03-15 07:21:01 51°13.636 2°56.019 127.9 -999 324 -999
2012-03-15 07:21:06 51°13.636 2°56.02 127.9 0.1 4 -999
2012-03-15 07:21:11 51°13.636 2°56.02 127.9 -999 31 -999
2012-03-15 07:21:15 51°13.636 2°56.02 127.9 -999 184 -999
2012-03-15 07:21:21 51°13.635 2°56.019 127.9 0.1 199 -999
2012-03-15 07:21:26 51°13.636 2°56.02 127.9 -999 118 -999
2012-03-15 07:21:31 51°13.636 2°56.02 127.9 0.1 30 -999
2012-03-15 07:21:36 51°13.636 2°56.02 127.9 -999 148 -999
2012-03-15 07:21:40 51°13.636 2°56.02 127.9 0.1 353 -999
2012-03-15 07:21:45 51°13.636 2°56.02 127.9 -999 21 -999
2012-03-15 07:21:50 51°13.636 2°56.02 127.9 -999 188 -999
2012-03-15 07:21:55 51°13.636 2°56.019 127.9 -999 297 -999
2012-03-15 07:22:01 51°13.636 2°56.02 127.9 0.2 14 -999
2012-03-15 07:22:06 51°13.636 2°56.02 127.9 0.1 48 -999
2012-03-15 07:22:11 51°13.635 2°56.019 127.9 0.2 209 -999
2012-03-15 07:22:16 51°13.635 2°56.019 128 0.2 215 -999
2012-03-15 07:22:21 51°13.636 2°56.02 128 -999 230 -999
2012-03-15 07:22:26 51°13.636 2°56.019 128 -999 305 -999
2012-03-15 07:22:31 51°13.636 2°56.019 128 -999 122 -999
2012-03-15 07:22:36 51°13.635 2°56.019 128 0.1 213 -999
2012-03-15 07:22:41 51°13.636 2°56.019 128 0.1 210 -999
2012-03-15 07:22:46 51°13.636 2°56.02 128 -999 118 -999
2012-03-15 07:22:50 51°13.636 2°56.02 128 -999 61 -999
2012-03-15 07:22:56 51°13.636 2°56.02 128 -999 43 -999
2012-03-15 07:23:01 51°13.636 2°56.019 128 0.1 200 -999
2012-03-15 07:23:06 51°13.636 2°56.019 128 -999 309 -999
2012-03-15 07:23:11 51°13.635 2°56.019 128 -999 280 -999
2012-03-15 07:23:16 51°13.635 2°56.019 128 0.2 205 -999
2012-03-15 07:23:21 51°13.635 2°56.019 128 0.1 217 -999
2012-03-15 07:23:26 51°13.636 2°56.019 128 0.3 25 -999
2012-03-15 07:23:31 51°13.635 2°56.019 128 0.1 245 -999
2012-03-15 07:23:36 51°13.635 2°56.019 128 0.1 188 -999
2012-03-15 07:23:41 51°13.635 2°56.019 128.1 0.1 184 -999
2012-03-15 07:23:46 51°13.635 2°56.019 128.1 -999 51 -999
2012-03-15 07:23:50 51°13.636 2°56.019 128.1 -999 261 -999
2012-03-15 07:23:55 51°13.636 2°56.019 128.1 -999 324 -999
2012-03-15 07:24:01 51°13.636 2°56.019 128.2 -999 305 -999
2012-03-15 07:24:06 51°13.636 2°56.02 128.2 0.2 21 -999
2012-03-15 07:24:11 51°13.635 2°56.019 128.2 0.1 200 -999
2012-03-15 07:24:16 51°13.636 2°56.019 128.2 0.1 4 -999
2012-03-15 07:24:21 51°13.636 2°56.019 128.3 0.1 20 -999
2012-03-15 07:24:26 51°13.636 2°56.02 128.3 0.2 18 -999
2012-03-15 07:24:31 51°13.636 2°56.02 128.3 0.2 28 -999
2012-03-15 07:24:36 51°13.635 2°56.019 128.4 -999 349 -999
2012-03-15 07:24:41 51°13.636 2°56.019 128.4 0.2 17 -999
2012-03-15 07:24:46 51°13.636 2°56.019 128.4 0.2 31 -999
2012-03-15 07:24:50 51°13.636 2°56.019 128.4 0.1 39 -999
2012-03-15 07:24:55 51°13.636 2°56.019 128.4 -999 67 -999
2012-03-15 07:25:01 51°13.635 2°56.019 128.4 0.1 198 -999
2012-03-15 07:25:06 51°13.635 2°56.019 128.4 0.1 219 -999
2012-03-15 07:25:11 51°13.635 2°56.019 128.4 -999 15 -999
2012-03-15 07:25:16 51°13.635 2°56.019 128.3 0.1 159 -999
2012-03-15 07:25:21 51°13.636 2°56.019 128.3 0.1 19 -999
2012-03-15 07:25:26 51°13.635 2°56.019 128.3 -999 310 -999
2012-03-15 07:25:31 51°13.635 2°56.019 128.3 -999 36 -999
2012-03-15 07:25:36 51°13.635 2°56.019 128.2 -999 199 -999
2012-03-15 07:25:40 51°13.635 2°56.019 128.2 0.1 225 -999
2012-03-15 07:25:46 51°13.635 2°56.019 128.2 -999 259 -999
2012-03-15 07:25:51 51°13.635 2°56.019 128.2 -999 170 -999
2012-03-15 07:25:56 51°13.635 2°56.019 128.2 -999 238 -999
2012-03-15 07:26:00 51°13.635 2°56.019 128.2 0.1 213 -999
2012-03-15 07:26:05 51°13.635 2°56.019 128.1 -999 153 -999
2012-03-15 07:26:10 51°13.635 2°56.019 128.1 0.1 36 -999
2012-03-15 07:26:16 51°13.635 2°56.019 128 0.1 26 -999
2012-03-15 07:26:21 51°13.635 2°56.019 127.9 0.1 20 -999
2012-03-15 07:26:26 51°13.635 2°56.019 127.9 0.1 204 -999
2012-03-15 07:26:31 51°13.635 2°56.019 127.8 -999 227 -999
2012-03-15 07:26:36 51°13.635 2°56.019 127.8 0.1 31 -999
2012-03-15 07:26:41 51°13.635 2°56.019 127.8 0.1 185 -999
2012-03-15 07:26:46 51°13.635 2°56.019 127.8 0.1 198 -999
2012-03-15 07:26:51 51°13.635 2°56.019 127.8 -999 272 -999
2012-03-15 07:26:56 51°13.635 2°56.019 127.8 -999 359 -999
2012-03-15 07:27:01 51°13.635 2°56.019 127.8 0.1 354 -999
2012-03-15 07:27:06 51°13.635 2°56.019 127.8 0.1 15 -999
2012-03-15 07:27:11 51°13.635 2°56.019 127.8 0.1 46 -999
2012-03-15 07:27:16 51°13.635 2°56.019 127.8 0.1 201 -999
2012-03-15 07:27:21 51°13.634 2°56.019 127.8 0.2 217 -999
2012-03-15 07:27:26 51°13.635 2°56.019 127.8 -999 253 -999
2012-03-15 07:27:31 51°13.635 2°56.019 127.8 0.1 35 -999
2012-03-15 07:27:36 51°13.635 2°56.019 127.8 0.2 42 -999
2012-03-15 07:27:41 51°13.634 2°56.019 127.8 0.2 215 -999
2012-03-15 07:27:46 51°13.635 2°56.019 127.8 0.1 31 -999
2012-03-15 07:27:51 51°13.635 2°56.019 127.8 0.1 33 -999
2012-03-15 07:27:56 51°13.635 2°56.019 127.8 0.1 62 -999
2012-03-15 07:28:01 51°13.634 2°56.019 127.8 0.3 203 -999
2012-03-15 07:28:06 51°13.635 2°56.019 127.8 -999 217 -999
2012-03-15 07:28:11 51°13.635 2°56.019 127.8 0.2 40 -999
2012-03-15 07:28:16 51°13.635 2°56.019 127.8 0.1 189 -999
2012-03-15 07:28:21 51°13.635 2°56.019 127.8 0.1 208 -999
2012-03-15 07:28:26 51°13.635 2°56.019 127.8 -999 199 -999
2012-03-15 07:28:31 51°13.635 2°56.019 127.8 0.1 23 -999
2012-03-15 07:28:36 51°13.635 2°56.019 127.8 0.1 12 -999
2012-03-15 07:28:41 51°13.635 2°56.019 127.8 0.1 235 -999
2012-03-15 07:28:46 51°13.635 2°56.019 127.8 0.1 357 -999
2012-03-15 07:28:51 51°13.635 2°56.019 127.9 0.1 47 -999
2012-03-15 07:28:56 51°13.635 2°56.019 127.9 0.1 10 -999
2012-03-15 07:29:01 51°13.635 2°56.019 127.9 0.1 21 -999
2012-03-15 07:29:06 51°13.635 2°56.019 127.9 0.1 17 -999
2012-03-15 07:29:11 51°13.635 2°56.019 128 -999 338 -999
2012-03-15 07:29:16 51°13.635 2°56.019 128 0.1 218 -999
2012-03-15 07:29:21 51°13.635 2°56.019 128.1 -999 30 -999
2012-03-15 07:29:26 51°13.635 2°56.019 128.1 0.1 40 -999
2012-03-15 07:29:31 51°13.635 2°56.019 128.2 -999 144 -999
2012-03-15 07:29:36 51°13.635 2°56.019 128.2 0.1 208 -999
2012-03-15 07:29:41 51°13.635 2°56.019 128.2 -999 256 -999
2012-03-15 07:29:46 51°13.635 2°56.019 128.2 -999 339 -999
2012-03-15 07:29:51 51°13.635 2°56.019 128.3 0.1 21 -999
2012-03-15 07:29:56 51°13.635 2°56.019 128.3 0.1 16 -999
2012-03-15 07:30:01 51°13.635 2°56.019 128.4 0.1 246 -999
2012-03-15 07:30:06 51°13.635 2°56.019 128.4 0.1 214 -999
2012-03-15 07:30:11 51°13.635 2°56.019 128.4 0.1 207 -999
2012-03-15 07:30:16 51°13.635 2°56.019 128.4 0.1 11 -999
2012-03-15 07:30:21 51°13.635 2°56.019 128.5 0.1 58 -999
2012-03-15 07:30:25 51°13.635 2°56.019 128.5 0.1 267 -999
2012-03-15 07:30:31 51°13.635 2°56.019 128.5 -999 355 -999
2012-03-15 07:30:36 51°13.635 2°56.019 128.5 0.1 40 -999
2012-03-15 07:30:41 51°13.636 2°56.019 128.5 0.1 36 -999
2012-03-15 07:30:46 51°13.635 2°56.019 128.5 -999 212 -999
2012-03-15 07:30:51 51°13.635 2°56.019 128.4 0.1 32 -999
2012-03-15 07:30:56 51°13.636 2°56.019 128.4 0.2 25 -999
2012-03-15 07:31:01 51°13.635 2°56.019 128.4 -999 291 -999
2012-03-15 07:31:06 51°13.635 2°56.019 128.4 0.1 221 -999
2012-03-15 07:31:11 51°13.635 2°56.019 128.4 0.1 219 -999
2012-03-15 07:31:16 51°13.635 2°56.019 128.4 0.1 208 -999
2012-03-15 07:31:21 51°13.635 2°56.019 128.4 -999 112 -999
2012-03-15 07:31:26 51°13.635 2°56.019 128.4 0.1 53 -999
2012-03-15 07:31:31 51°13.635 2°56.019 128.4 0.1 209 -999
2012-03-15 07:31:36 51°13.635 2°56.019 128.4 -999 197 -999
2012-03-15 07:31:41 51°13.635 2°56.019 128.3 -999 145 -999
2012-03-15 07:31:46 51°13.635 2°56.019 128.3 0.1 208 -999
2012-03-15 07:31:51 51°13.635 2°56.019 128.3 0.1 216 -999
2012-03-15 07:31:56 51°13.636 2°56.019 128.3 0.1 25 -999
2012-03-15 07:32:01 51°13.635 2°56.019 128.3 -999 280 -999
2012-03-15 07:32:06 51°13.635 2°56.019 128.3 0.1 34 -999
2012-03-15 07:32:11 51°13.635 2°56.019 128.3 0.1 44 -999
2012-03-15 07:32:16 51°13.635 2°56.019 128.3 -999 193 -999
2012-03-15 07:32:21 51°13.635 2°56.019 128.3 -999 172 -999
2012-03-15 07:32:26 51°13.636 2°56.019 128.2 0.1 28 -999
2012-03-15 07:32:31 51°13.635 2°56.019 128.2 -999 39 -999
2012-03-15 07:32:36 51°13.635 2°56.019 128.2 0.1 50 -999
2012-03-15 07:32:41 51°13.636 2°56.019 128.1 0.1 43 -999
2012-03-15 07:32:46 51°13.635 2°56.019 128 0.1 34 -999
2012-03-15 07:32:51 51°13.635 2°56.019 127.7 0.1 65 -999
2012-03-15 07:32:56 51°13.635 2°56.019 126.9 0.1 126 -999
2012-03-15 07:33:01 51°13.635 2°56.019 125.7 -999 163 -999
2012-03-15 07:33:06 51°13.635 2°56.019 124.7 -999 84 -999
2012-03-15 07:33:11 51°13.635 2°56.019 123.9 0.2 211 -999
2012-03-15 07:33:16 51°13.635 2°56.019 123.3 0.2 203 -999
2012-03-15 07:33:21 51°13.635 2°56.02 122.6 0.1 78 -999
2012-03-15 07:33:26 51°13.636 2°56.02 121.9 0.1 38 -999
2012-03-15 07:33:31 51°13.635 2°56.019 121.2 -999 155 -999
2012-03-15 07:33:36 51°13.635 2°56.02 120.1 0.1 69 -999
2012-03-15 07:33:41 51°13.635 2°56.019 119.2 -999 71 -999
2012-03-15 07:33:46 51°13.635 2°56.019 118.4 -999 204 -999
2012-03-15 07:33:51 51°13.635 2°56.019 117.5 -999 62 -999
2012-03-15 07:33:56 51°13.635 2°56.019 116.4 0.1 187 -999
2012-03-15 07:34:01 51°13.635 2°56.019 115.4 0.1 160 -999
2012-03-15 07:34:06 51°13.635 2°56.019 114.4 0.1 212 -999
2012-03-15 07:34:11 51°13.635 2°56.019 113.5 0.1 214 -999
2012-03-15 07:34:16 51°13.635 2°56.019 112.6 0.1 205 -999
2012-03-15 07:34:21 51°13.635 2°56.019 111.7 0.1 194 -999
2012-03-15 07:34:25 51°13.634 2°56.018 110.7 0.2 206 -999
2012-03-15 07:34:31 51°13.634 2°56.018 109.8 0.1 198 -999
2012-03-15 07:34:36 51°13.634 2°56.018 108.9 0.1 213 9.6
2012-03-15 07:34:41 51°13.634 2°56.018 108.2 0.1 249 -999
2012-03-15 07:34:46 51°13.635 2°56.018 107.2 0.3 1 -999
2012-03-15 07:34:51 51°13.636 2°56.017 106.5 0.4 307 -999
2012-03-15 07:34:56 51°13.635 2°56.015 105.9 0.9 280 -999
2012-03-15 07:35:01 51°13.636 2°56.012 105.5 1.2 288 -999
2012-03-15 07:35:05 51°13.637 2°56.009 105.3 1.7 288 9.8
2012-03-15 07:35:11 51°13.637 2°56.004 105.5 2.1 284 -999
2012-03-15 07:35:16 51°13.639 2°56 105.9 2.4 296 -999
2012-03-15 07:35:21 51°13.641 2°55.994 106.3 2.7 294 -999
2012-03-15 07:35:25 51°13.642 2°55.989 106.7 2.9 292 -999
2012-03-15 07:35:31 51°13.642 2°55.981 106.8 2.9 287 -999
2012-03-15 07:35:36 51°13.644 2°55.975 106.9 3 290 -999
2012-03-15 07:35:41 51°13.645 2°55.968 106.9 3.1 288 -999
2012-03-15 07:35:46 51°13.646 2°55.962 106.9 3.2 289 -999
2012-03-15 07:35:51 51°13.647 2°55.955 107.2 3.3 286 -999
2012-03-15 07:35:56 51°13.648 2°55.948 107.5 3.3 285 -999
2012-03-15 07:36:01 51°13.649 2°55.941 108.4 3.4 285 -999
2012-03-15 07:36:06 51°13.651 2°55.933 109.2 3.5 287 -999
2012-03-15 07:36:11 51°13.652 2°55.926 110.5 3.5 288 -999
2012-03-15 07:36:16 51°13.654 2°55.919 112 3.5 289 -999
2012-03-15 07:36:21 51°13.656 2°55.911 114 3.6 292 -999
2012-03-15 07:36:26 51°13.658 2°55.904 115.3 3.7 293 -999
2012-03-15 07:36:31 51°13.66 2°55.896 116.8 3.8 295 -999
2012-03-15 07:36:36 51°13.662 2°55.888 118 3.9 296 -999
2012-03-15 07:36:41 51°13.665 2°55.88 119.1 4.1 297 -999
2012-03-15 07:36:46 51°13.668 2°55.872 120.3 4.3 300 -999
2012-03-15 07:36:51 51°13.671 2°55.863 121.4 4.5 299 -999
2012-03-15 07:36:56 51°13.674 2°55.854 122.4 4.7 301 -999
2012-03-15 07:37:01 51°13.678 2°55.845 123.5 4.8 302 -999
2012-03-15 07:37:05 51°13.681 2°55.838 124.9 4.8 302 -999
2012-03-15 07:37:11 51°13.686 2°55.827 126.4 4.9 305 -999
2012-03-15 07:37:16 51°13.69 2°55.818 128 5 306 -999
2012-03-15 07:37:21 51°13.695 2°55.81 130 5.2 310 -999
2012-03-15 07:37:25 51°13.698 2°55.803 132.3 5 312 -999
2012-03-15 07:37:31 51°13.704 2°55.794 135 5 315 -999
2012-03-15 07:37:36 51°13.709 2°55.787 137.3 4.7 318 -999
2012-03-15 07:37:41 51°13.713 2°55.781 139.4 3.9 320 -999
2012-03-15 07:37:46 51°13.716 2°55.777 140.8 3 316 -999
2012-03-15 07:37:51 51°13.718 2°55.772 140.2 2.7 312 -999
2012-03-15 07:37:56 51°13.721 2°55.768 136.6 3 313 -999
2012-03-15 07:38:01 51°13.724 2°55.763 134.7 3.3 312 -999
2012-03-15 07:38:06 51°13.728 2°55.757 134 3.7 313 -999
2012-03-15 07:38:11 51°13.731 2°55.75 133.3 4.1 310 -999
2012-03-15 07:38:16 51°13.735 2°55.743 132.9 4.4 311 -999
2012-03-15 07:38:21 51°13.74 2°55.735 133.2 4.6 312 -999
2012-03-15 07:38:26 51°13.744 2°55.727 135 4.9 314 -999
2012-03-15 07:38:31 51°13.749 2°55.72 137.2 5.1 316 -999
2012-03-15 07:38:36 51°13.755 2°55.712 139.5 5.3 317 -999
2012-03-15 07:38:41 51°13.76 2°55.704 141.6 5.4 318 -999
2012-03-15 07:38:46 51°13.766 2°55.696 142.8 5.5 320 -999
2012-03-15 07:38:51 51°13.773 2°55.688 143.9 5.7 321 -999
2012-03-15 07:38:56 51°13.779 2°55.681 145.4 5.8 323 -999
2012-03-15 07:39:01 51°13.786 2°55.674 147.3 5.9 325 -999
2012-03-15 07:39:06 51°13.793 2°55.667 149.5 6 328 -999
2012-03-15 07:39:11 51°13.8 2°55.66 151.8 6.1 330 -999
2012-03-15 07:39:16 51°13.808 2°55.654 154.4 6.1 333 -999
2012-03-15 07:39:21 51°13.816 2°55.648 157.2 6.2 335 -999
2012-03-15 07:39:25 51°13.822 2°55.644 159.8 6.1 336 -999
2012-03-15 07:39:31 51°13.831 2°55.638 162.6 6.1 338 -999
2012-03-15 07:39:36 51°13.84 2°55.634 165.5 6.2 341 -999
2012-03-15 07:39:41 51°13.848 2°55.631 168.6 6.2 346 -999
2012-03-15 07:39:46 51°13.857 2°55.628 172.2 6.1 350 -999
2012-03-15 07:39:51 51°13.865 2°55.627 175.8 6.1 354 -999
2012-03-15 07:39:56 51°13.874 2°55.626 179.5 6 357 -999
2012-03-15 07:40:01 51°13.882 2°55.626 183.2 5.9 -999 -999
2012-03-15 07:40:06 51°13.89 2°55.628 187 5.9 5 -999
2012-03-15 07:40:11 51°13.898 2°55.629 190.5 5.7 8 -999
2012-03-15 07:40:16 51°13.905 2°55.632 193.9 5.6 11 -999
2012-03-15 07:40:21 51°13.912 2°55.634 197 5.2 13 -999
2012-03-15 07:40:26 51°13.919 2°55.638 199.8 5.1 16 -999
2012-03-15 07:40:31 51°13.926 2°55.641 202.4 5.1 19 -999
2012-03-15 07:40:36 51°13.932 2°55.645 204.8 4.9 21 -999
2012-03-15 07:40:41 51°13.938 2°55.649 206.9 4.5 23 -999
2012-03-15 07:40:46 51°13.943 2°55.652 209 4.1 24 -999
2012-03-15 07:40:51 51°13.948 2°55.657 210.9 4 26 -999
2012-03-15 07:40:56 51°13.953 2°55.661 212.7 4 27 -999
2012-03-15 07:41:01 51°13.958 2°55.665 214.7 3.7 28 -999
2012-03-15 07:41:06 51°13.961 2°55.668 216.5 3.1 30 -999
2012-03-15 07:41:11 51°13.964 2°55.671 219.2 2.5 31 11.8
2012-03-15 07:41:16 51°13.966 2°55.673 221.5 1.9 31 -999
2012-03-15 07:41:21 51°13.968 2°55.675 224.8 1.5 30 -999
2012-03-15 07:41:25 51°13.969 2°55.676 228.2 1.1 28 -999
2012-03-15 07:41:31 51°13.97 2°55.676 232.1 0.5 12 -999
2012-03-15 07:41:36 51°13.971 2°55.675 236.2 0.3 321 -999
2012-03-15 07:41:41 51°13.971 2°55.674 242.1 0.6 290 -999
2012-03-15 07:41:45 51°13.971 2°55.673 246.6 0.8 282 11.9
2012-03-15 07:41:51 51°13.972 2°55.67 252.4 1.1 280 -999
2012-03-15 07:41:56 51°13.972 2°55.667 258.6 1.3 277 -999
2012-03-15 07:42:01 51°13.972 2°55.664 264.8 1.5 280 -999
2012-03-15 07:42:06 51°13.973 2°55.66 270.7 1.7 281 -999
2012-03-15 07:42:10 51°13.973 2°55.657 275.2 1.9 286 -999
2012-03-15 07:42:16 51°13.974 2°55.651 281.9 2.2 287 -999
2012-03-15 07:42:21 51°13.976 2°55.646 287 2.5 292 -999
2012-03-15 07:42:26 51°13.977 2°55.64 291.7 2.8 297 -999
2012-03-15 07:42:31 51°13.98 2°55.635 295.7 3.2 301 -999
2012-03-15 07:42:36 51°13.983 2°55.628 300.2 3.5 307 -999
2012-03-15 07:42:41 51°13.986 2°55.621 304 3.9 307 -999
2012-03-15 07:42:46 51°13.99 2°55.614 307.7 4.3 312 -999
2012-03-15 07:42:51 51°13.994 2°55.607 310.6 4.6 314 -999
2012-03-15 07:42:56 51°13.998 2°55.599 313.3 4.9 313 11.9
2012-03-15 07:43:01 51°14.004 2°55.591 315.1 5.2 317 -999
2012-03-15 07:43:06 51°14.009 2°55.583 317.1 5.4 317 -999
2012-03-15 07:43:11 51°14.015 2°55.575 318.3 5.7 319 -999
2012-03-15 07:43:16 51°14.021 2°55.566 319 5.9 319 -999
2012-03-15 07:43:21 51°14.027 2°55.557 319.4 6.1 319 12.1
2012-03-15 07:43:25 51°14.033 2°55.55 319.4 6.4 318 -999
2012-03-15 07:43:31 51°14.041 2°55.539 320 6.5 321 -999
2012-03-15 07:43:36 51°14.049 2°55.53 321.1 6.8 321 -999
2012-03-15 07:43:41 51°14.056 2°55.52 322 6.9 323 -999
2012-03-15 07:43:45 51°14.063 2°55.513 323.6 7 323 12.1
2012-03-15 07:43:51 51°14.073 2°55.503 324.4 7.2 324 -999
2012-03-15 07:43:56 51°14.082 2°55.494 324.5 7.3 327 -999
2012-03-15 07:44:01 51°14.09 2°55.485 326.1 7.5 326 -999
2012-03-15 07:44:06 51°14.099 2°55.475 327.5 7.6 328 -999
2012-03-15 07:44:10 51°14.106 2°55.467 327.9 7.7 327 -999
2012-03-15 07:44:16 51°14.117 2°55.456 328.3 7.8 329 -999
2012-03-15 07:44:21 51°14.126 2°55.448 329.6 7.8 329 -999
2012-03-15 07:44:26 51°14.136 2°55.44 330.1 8 330 -999
2012-03-15 07:44:31 51°14.145 2°55.43 328.7 8 327 -999
2012-03-15 07:44:36 51°14.154 2°55.42 328.2 8 329 -999
2012-03-15 07:44:41 51°14.164 2°55.411 328.8 8.1 327 -999
2012-03-15 07:44:46 51°14.174 2°55.403 329 8.2 330 -999
2012-03-15 07:44:51 51°14.184 2°55.392 328.4 8.2 326 -999
2012-03-15 07:44:56 51°14.193 2°55.382 327.5 8.2 328 -999
2012-03-15 07:45:01 51°14.202 2°55.372 327.5 8.2 326 -999
2012-03-15 07:45:06 51°14.211 2°55.362 328.3 8.2 328 -999
2012-03-15 07:45:10 51°14.219 2°55.354 328.9 8.2 329 -999
2012-03-15 07:45:16 51°14.231 2°55.343 329.8 8.2 328 -999
2012-03-15 07:45:21 51°14.241 2°55.333 330 8.3 327 -999
2012-03-15 07:45:25 51°14.249 2°55.325 328.9 8.5 327 4.9
2012-03-15 07:45:31 51°14.261 2°55.313 328.4 8.6 328 -999
2012-03-15 07:45:36 51°14.271 2°55.303 328.8 8.7 327 -999
2012-03-15 07:45:41 51°14.281 2°55.293 328.8 8.9 329 4.8
2012-03-15 07:45:46 51°14.292 2°55.281 328.9 9 326 -999
2012-03-15 07:45:51 51°14.303 2°55.271 328.2 9.2 328 -999
2012-03-15 07:45:56 51°14.313 2°55.259 328.1 9.2 328 -999
2012-03-15 07:46:01 51°14.324 2°55.248 328.5 9.2 328 -999
2012-03-15 07:46:05 51°14.332 2°55.239 329 9.2 328 -999
2012-03-15 07:46:11 51°14.345 2°55.225 329.2 9.2 327 -999
2012-03-15 07:46:16 51°14.356 2°55.214 328.4 9.3 326 -999
2012-03-15 07:46:21 51°14.367 2°55.203 328.2 9.3 327 -999
2012-03-15 07:46:26 51°14.378 2°55.192 328.9 9.3 328 -999
2012-03-15 07:46:31 51°14.389 2°55.181 329.1 9.5 328 4.8
2012-03-15 07:46:36 51°14.4 2°55.17 329.6 9.6 330 -999
2012-03-15 07:46:41 51°14.412 2°55.159 330.4 9.7 329 4.9
2012-03-15 07:46:46 51°14.423 2°55.147 330.3 9.8 328 -999
2012-03-15 07:46:51 51°14.435 2°55.136 329.9 9.9 329 -999
2012-03-15 07:46:56 51°14.447 2°55.125 330.5 9.9 330 -999
2012-03-15 07:47:01 51°14.459 2°55.114 331.8 10 330 -999
2012-03-15 07:47:06 51°14.471 2°55.102 331.6 10.2 328 4.8
2012-03-15 07:47:11 51°14.484 2°55.091 331 10.3 331 4.8
2012-03-15 07:47:16 51°14.496 2°55.08 331.1 10.3 330 -999
2012-03-15 07:47:21 51°14.508 2°55.068 331.4 10.6 330 12.4
2012-03-15 07:47:25 51°14.519 2°55.059 331.9 10.7 331 12.2
2012-03-15 07:47:30 51°14.531 2°55.047 332.5 10.7 330 12.4
2012-03-15 07:47:35 51°14.544 2°55.035 332.6 10.8 330 12.7
2012-03-15 07:47:40 51°14.557 2°55.022 332.4 10.9 329 13
2012-03-15 07:47:45 51°14.57 2°55.01 331.8 11 329 13.2
2012-03-15 07:47:49 51°14.581 2°55 331.3 11 328 13.3
2012-03-15 07:47:55 51°14.596 2°54.984 330.8 11.1 327 13.3
2012-03-15 07:47:59 51°14.607 2°54.973 329.6 11.1 326 13.4
2012-03-15 07:48:04 51°14.619 2°54.959 328.5 11.1 326 13.4
2012-03-15 07:48:09 51°14.632 2°54.945 328.8 11.2 326 13.4
2012-03-15 07:48:14 51°14.645 2°54.931 328.2 11.2 323 13.2
2012-03-15 07:48:19 51°14.658 2°54.917 326.1 11.1 324 13
2012-03-15 07:48:24 51°14.67 2°54.903 325.2 11.2 324 12.9
2012-03-15 07:48:29 51°14.682 2°54.888 325.5 11.2 323 12.9
2012-03-15 07:48:33 51°14.692 2°54.875 325.4 11.3 322 12.9
2012-03-15 07:48:38 51°14.705 2°54.86 324 11.4 322 12.9
2012-03-15 07:48:43 51°14.717 2°54.844 322.8 11.5 323 12.8
2012-03-15 07:48:48 51°14.73 2°54.829 323.5 11.5 325 12.8
2012-03-15 07:48:53 51°14.743 2°54.815 325.2 11.6 325 12.9
2012-03-15 07:48:57 51°14.754 2°54.803 325.3 11.7 324 12.9
2012-03-15 07:49:03 51°14.77 2°54.785 324.9 11.8 324 12.9
2012-03-15 07:49:07 51°14.781 2°54.773 325.1 11.9 325 12.9
2012-03-15 07:49:12 51°14.794 2°54.757 326 12 325 12.9
2012-03-15 07:49:17 51°14.808 2°54.742 326.3 12.3 325 12.9
2012-03-15 07:49:22 51°14.823 2°54.726 325.8 12.6 326 13
2012-03-15 07:49:27 51°14.837 2°54.711 326.5 12.7 328 13
2012-03-15 07:49:32 51°14.852 2°54.696 328.6 12.7 327 13.1
2012-03-15 07:49:37 51°14.866 2°54.68 328.8 12.8 326 13.1
2012-03-15 07:49:42 51°14.881 2°54.664 327.7 13 325 13.1
2012-03-15 07:49:47 51°14.896 2°54.648 327.6 13 325 13.2
2012-03-15 07:49:52 51°14.911 2°54.633 327.4 13 325 13.2
2012-03-15 07:49:57 51°14.926 2°54.616 326 13 324 13.1
2012-03-15 07:50:02 51°14.94 2°54.599 325.6 12.9 325 12.9
2012-03-15 07:50:07 51°14.954 2°54.581 325.2 12.9 323 12.7
2012-03-15 07:50:13 51°14.972 2°54.56 323.7 13 322 12.8
2012-03-15 07:50:17 51°14.983 2°54.546 321.9 12.9 321 12.8
2012-03-15 07:50:22 51°14.997 2°54.528 321.7 12.9 323 12.6
2012-03-15 07:50:27 51°15.011 2°54.511 323 12.9 323 12.7
2012-03-15 07:50:32 51°15.026 2°54.495 324.1 12.9 324 12.7
2012-03-15 07:50:37 51°15.04 2°54.478 324 12.8 323 12.5
2012-03-15 07:50:42 51°15.055 2°54.461 324.5 12.8 325 12.5
2012-03-15 07:50:47 51°15.069 2°54.445 325.9 12.8 325 12.5
2012-03-15 07:50:52 51°15.084 2°54.429 325.9 12.7 326 12.4
2012-03-15 07:50:57 51°15.098 2°54.413 326.8 12.7 326 12.3
2012-03-15 07:51:02 51°15.113 2°54.397 327.8 12.7 327 12.2
2012-03-15 07:51:07 51°15.128 2°54.383 328.4 12.7 327 12.3
2012-03-15 07:51:12 51°15.144 2°54.369 329.1 12.7 329 12.4
2012-03-15 07:51:17 51°15.159 2°54.355 330.2 12.6 330 12
2012-03-15 07:51:23 51°15.177 2°54.338 330.5 12.6 329 12.1
2012-03-15 07:51:27 51°15.189 2°54.326 330.3 12.6 328 12.1
2012-03-15 07:51:32 51°15.203 2°54.31 329.7 12.6 327 12
2012-03-15 07:51:37 51°15.218 2°54.296 328.9 12.7 328 11.7
2012-03-15 07:51:41 51°15.23 2°54.283 328.6 12.7 328 11.8
2012-03-15 07:51:47 51°15.248 2°54.265 328.5 12.7 328 11.7
2012-03-15 07:51:52 51°15.263 2°54.25 328.8 12.7 328 11.9
2012-03-15 07:51:57 51°15.278 2°54.236 328.9 12.8 329 11.7
2012-03-15 07:52:02 51°15.293 2°54.221 329.1 12.7 328 11.6
2012-03-15 07:52:07 51°15.308 2°54.205 328.4 12.6 327 11.4
2012-03-15 07:52:12 51°15.322 2°54.189 327.1 12.7 325 11.4
2012-03-15 07:52:17 51°15.336 2°54.173 326.1 12.6 325 11.5
2012-03-15 07:52:22 51°15.351 2°54.157 325.2 12.6 323 11.4
2012-03-15 07:52:27 51°15.364 2°54.139 323.1 12.6 320 11.6
2012-03-15 07:52:32 51°15.377 2°54.121 320.8 12.6 319 11.6
2012-03-15 07:52:37 51°15.39 2°54.102 319.7 12.5 318 11.7
2012-03-15 07:52:42 51°15.403 2°54.083 318.6 12.5 317 11.8
2012-03-15 07:52:47 51°15.416 2°54.065 318.1 12.6 318 11.6
2012-03-15 07:52:53 51°15.432 2°54.043 318.1 12.7 318 11.8
2012-03-15 07:52:57 51°15.442 2°54.027 317.8 12.7 317 12.1
2012-03-15 07:53:02 51°15.454 2°54.008 317.4 12.5 317 12.1
2012-03-15 07:53:07 51°15.467 2°53.989 317.3 12.6 317 12.2
2012-03-15 07:53:13 51°15.483 2°53.967 317.3 12.5 318 12.2
2012-03-15 07:53:17 51°15.493 2°53.952 318 12.6 318 12.4
2012-03-15 07:53:22 51°15.506 2°53.934 318.5 12.6 319 12.7
2012-03-15 07:53:27 51°15.52 2°53.916 319.4 12.6 320 12.6
2012-03-15 07:53:32 51°15.533 2°53.897 319.6 12.5 319 12.7
2012-03-15 07:53:37 51°15.547 2°53.879 320.1 12.6 321 12.7
2012-03-15 07:53:41 51°15.558 2°53.866 321.4 12.7 323 12.9
2012-03-15 07:53:47 51°15.575 2°53.846 323.2 12.7 325 12.7
2012-03-15 07:53:52 51°15.59 2°53.831 325 12.8 326 12.9
2012-03-15 07:53:57 51°15.605 2°53.815 326 12.8 327 12.9
2012-03-15 07:54:02 51°15.62 2°53.799 326.3 12.8 327 12.9
2012-03-15 07:54:07 51°15.635 2°53.784 326.8 12.8 327 12.8
2012-03-15 07:54:12 51°15.65 2°53.768 327 12.8 327 12.9
2012-03-15 07:54:17 51°15.665 2°53.753 327 12.9 327 12.9
2012-03-15 07:54:22 51°15.68 2°53.738 326.8 12.8 327 12.5
2012-03-15 07:54:27 51°15.695 2°53.722 326.4 12.9 327 12.7
2012-03-15 07:54:32 51°15.709 2°53.706 326.5 12.8 326 12.7
2012-03-15 07:54:37 51°15.723 2°53.689 325.3 12.8 324 12.6
2012-03-15 07:54:42 51°15.738 2°53.673 324.1 12.8 324 12.8
2012-03-15 07:54:48 51°15.756 2°53.653 323.7 13 324 13
2012-03-15 07:54:53 51°15.769 2°53.635 323.1 12.9 323 12.9
2012-03-15 07:54:57 51°15.78 2°53.621 322.9 12.9 322 13
2012-03-15 07:55:02 51°15.794 2°53.604 322.7 12.8 322 13.1
2012-03-15 07:55:07 51°15.808 2°53.586 322.7 12.7 322 13.1
2012-03-15 07:55:13 51°15.824 2°53.565 322.6 12.6 322 13.1
2012-03-15 07:55:17 51°15.835 2°53.551 322.6 12.7 323 13.2
2012-03-15 07:55:22 51°15.85 2°53.535 323.1 12.7 324 13.2
2012-03-15 07:55:27 51°15.864 2°53.518 323.5 12.6 324 13.2
2012-03-15 07:55:33 51°15.881 2°53.499 324.1 12.7 325 13.1
2012-03-15 07:55:37 51°15.893 2°53.486 324.9 12.8 326 13.2
2012-03-15 07:55:41 51°15.905 2°53.473 325.2 12.9 326 13.2
2012-03-15 07:55:47 51°15.922 2°53.454 325.5 12.8 326 13.3
2012-03-15 07:55:52 51°15.937 2°53.438 325.9 12.7 325 13.4
2012-03-15 07:55:57 51°15.951 2°53.421 325.4 12.6 325 13.3
2012-03-15 07:56:02 51°15.965 2°53.405 325.2 12.7 325 13.2
2012-03-15 07:56:07 51°15.98 2°53.389 325.1 12.8 325 13.3
2012-03-15 07:56:12 51°15.994 2°53.372 324.4 12.7 324 13.5
2012-03-15 07:56:17 51°16.008 2°53.355 323.8 12.7 324 13.3
2012-03-15 07:56:22 51°16.023 2°53.339 323.5 12.7 323 13.3
2012-03-15 07:56:27 51°16.036 2°53.322 322.8 12.7 323 13.4
2012-03-15 07:56:32 51°16.05 2°53.304 322.6 12.7 322 13.4
2012-03-15 07:56:37 51°16.064 2°53.286 322.1 12.7 321 13.4
2012-03-15 07:56:42 51°16.078 2°53.269 321.3 12.7 321 13.5
2012-03-15 07:56:47 51°16.091 2°53.25 320.5 12.8 319 13.5
2012-03-15 07:56:53 51°16.107 2°53.228 319.4 12.8 319 13.4
2012-03-15 07:56:57 51°16.118 2°53.214 319.4 12.7 319 13.6
2012-03-15 07:57:02 51°16.131 2°53.195 318.8 12.7 318 13.6
2012-03-15 07:57:07 51°16.145 2°53.176 318.1 12.7 318 13.4
2012-03-15 07:57:12 51°16.158 2°53.158 318.1 12.7 318 13.6
2012-03-15 07:57:17 51°16.171 2°53.139 318.1 12.7 319 13.5
2012-03-15 07:57:22 51°16.185 2°53.121 319.6 12.7 321 13.8
2012-03-15 07:57:27 51°16.199 2°53.104 320.5 12.8 321 13.6
2012-03-15 07:57:32 51°16.213 2°53.087 321.6 12.8 324 13.5
2012-03-15 07:57:37 51°16.228 2°53.071 323.1 12.9 325 13.7
2012-03-15 07:57:42 51°16.243 2°53.055 324.6 12.9 327 13.8
2012-03-15 07:57:47 51°16.257 2°53.04 326 12.8 329 13.7
2012-03-15 07:57:53 51°16.275 2°53.022 328.2 12.8 330 13.7
2012-03-15 07:57:57 51°16.288 2°53.011 329.3 12.9 330 13.8
2012-03-15 07:58:02 51°16.303 2°52.997 330.3 12.9 332 13.8
2012-03-15 07:58:07 51°16.318 2°52.983 330.6 12.8 330 13.8
2012-03-15 07:58:12 51°16.334 2°52.969 331 12.8 332 13.6
2012-03-15 07:58:17 51°16.35 2°52.956 331.8 12.9 332 13.7
2012-03-15 07:58:22 51°16.365 2°52.941 331.8 12.8 331 13.8
2012-03-15 07:58:27 51°16.381 2°52.927 331.6 12.8 331 13.7
2012-03-15 07:58:32 51°16.396 2°52.913 331.4 12.8 331 13.6
2012-03-15 07:58:37 51°16.412 2°52.9 331.1 12.8 331 13.6
2012-03-15 07:58:42 51°16.428 2°52.887 330.7 12.9 331 13.6
2012-03-15 07:58:47 51°16.443 2°52.872 330 12.8 328 13.5
2012-03-15 07:58:52 51°16.458 2°52.856 327.5 12.8 327 13.6
2012-03-15 07:58:57 51°16.473 2°52.84 326.6 12.8 326 13.5
2012-03-15 07:59:02 51°16.488 2°52.825 325.9 12.9 326 13.4
2012-03-15 07:59:07 51°16.502 2°52.809 324.8 12.8 325 13.4
2012-03-15 07:59:12 51°16.516 2°52.792 323.3 12.8 324 13.2
2012-03-15 07:59:17 51°16.53 2°52.775 323 12.7 324 13.4
2012-03-15 07:59:22 51°16.544 2°52.757 322.3 12.7 323 13.3
2012-03-15 07:59:27 51°16.558 2°52.74 322 12.7 322 13.2
2012-03-15 07:59:32 51°16.572 2°52.723 321.9 12.7 323 13.1
2012-03-15 07:59:37 51°16.587 2°52.707 322.7 12.8 325 13
2012-03-15 07:59:42 51°16.602 2°52.692 324.1 12.8 326 12.9
2012-03-15 07:59:47 51°16.617 2°52.677 325.3 12.8 328 12.8
2012-03-15 07:59:53 51°16.635 2°52.659 327.4 12.8 329 12.7
2012-03-15 07:59:57 51°16.647 2°52.648 328.6 12.8 330 12.7
2012-03-15 08:00:02 51°16.663 2°52.634 329.8 12.8 331 12.6
2012-03-15 08:00:07 51°16.678 2°52.621 330.4 12.8 333 12.4
2012-03-15 08:00:13 51°16.697 2°52.605 331.5 12.7 332 12.3
2012-03-15 08:00:17 51°16.709 2°52.594 331.8 12.7 333 11.8
2012-03-15 08:00:22 51°16.725 2°52.581 332.3 12.7 332 11.3
2012-03-15 08:00:27 51°16.741 2°52.569 332.3 12.7 332 11.1
2012-03-15 08:00:32 51°16.756 2°52.555 331.9 12.7 330 11.4
2012-03-15 08:00:37 51°16.771 2°52.541 330.6 12.7 329 11.5
2012-03-15 08:00:41 51°16.783 2°52.529 329.9 12.7 329 11.4
2012-03-15 08:00:47 51°16.802 2°52.512 329.6 12.7 329 11.3
2012-03-15 08:00:52 51°16.817 2°52.498 329.6 12.7 329 11.3
2012-03-15 08:00:57 51°16.832 2°52.484 329.8 12.7 329 11.3
2012-03-15 08:01:02 51°16.847 2°52.469 329.9 12.8 329 11.3
2012-03-15 08:01:07 51°16.862 2°52.456 330.4 12.8 330 11.2
2012-03-15 08:01:12 51°16.878 2°52.442 331.1 12.8 331 11
2012-03-15 08:01:17 51°16.893 2°52.428 331.1 12.8 331 11
2012-03-15 08:01:22 51°16.908 2°52.415 331.2 12.6 332 10.9
2012-03-15 08:01:27 51°16.923 2°52.401 331.8 12.5 331 10.9
2012-03-15 08:01:32 51°16.939 2°52.388 331.8 12.7 331 10.9
2012-03-15 08:01:37 51°16.955 2°52.374 331.8 12.8 331 11
2012-03-15 08:01:42 51°16.97 2°52.36 331.9 12.7 331 10.9
2012-03-15 08:01:48 51°16.988 2°52.344 331.8 12.7 330 11.2
2012-03-15 08:01:53 51°17.004 2°52.329 331 12.8 330 11.3
2012-03-15 08:01:57 51°17.016 2°52.319 331 12.9 330 11.3
2012-03-15 08:02:02 51°17.031 2°52.303 330.1 12.8 327 11.4
2012-03-15 08:02:07 51°17.046 2°52.287 328.1 12.7 326 11.6
2012-03-15 08:02:13 51°17.062 2°52.266 325.4 12.6 322 11.7
2012-03-15 08:02:17 51°17.073 2°52.253 323.8 12.8 323 12.1
2012-03-15 08:02:22 51°17.087 2°52.235 322.9 12.8 321 12.4
2012-03-15 08:02:27 51°17.101 2°52.217 321.3 12.7 320 12.5
2012-03-15 08:02:32 51°17.114 2°52.199 320.2 12.8 319 12.4
2012-03-15 08:02:37 51°17.128 2°52.18 319.4 12.8 319 12.5
2012-03-15 08:02:41 51°17.138 2°52.165 319.2 12.7 318 12.5
2012-03-15 08:02:47 51°17.154 2°52.142 318.5 12.7 317 12.6
2012-03-15 08:02:52 51°17.167 2°52.123 317.5 12.6 316 12.7
2012-03-15 08:02:57 51°17.179 2°52.103 316.4 12.7 315 12.7
2012-03-15 08:03:02 51°17.191 2°52.082 315.4 12.6 314 12.9
2012-03-15 08:03:07 51°17.203 2°52.063 315.1 12.6 314 13
2012-03-15 08:03:12 51°17.215 2°52.042 314 12.6 311 12.8
2012-03-15 08:03:17 51°17.226 2°52.021 312.3 12.6 311 12.6
2012-03-15 08:03:22 51°17.238 2°52 311.7 12.5 310 11.9
2012-03-15 08:03:27 51°17.249 2°51.978 310.9 12.5 309 11.7
2012-03-15 08:03:32 51°17.26 2°51.957 309.9 12.5 309 11.7
2012-03-15 08:03:37 51°17.271 2°51.936 309 12.5 308 11.7
2012-03-15 08:03:42 51°17.281 2°51.913 308.2 12.5 307 11.9
2012-03-15 08:03:47 51°17.292 2°51.892 307.8 12.7 308 12.1
2012-03-15 08:03:52 51°17.302 2°51.869 307.8 12.6 308 12.1
2012-03-15 08:03:57 51°17.314 2°51.848 308 12.7 309 12.3
2012-03-15 08:04:02 51°17.325 2°51.827 309.4 12.6 312 12.3
2012-03-15 08:04:08 51°17.34 2°51.803 312 12.7 314 12.4
2012-03-15 08:04:13 51°17.352 2°51.783 314 12.8 315 12.3
2012-03-15 08:04:17 51°17.363 2°51.768 316.1 12.9 317 12.4
2012-03-15 08:04:22 51°17.376 2°51.748 317.3 12.8 317 12.4
2012-03-15 08:04:27 51°17.389 2°51.729 318 12.8 319 12.5
2012-03-15 08:04:33 51°17.405 2°51.707 319.4 12.8 320 12.4
2012-03-15 08:04:37 51°17.416 2°51.693 320.9 12.8 322 12.3
2012-03-15 08:04:42 51°17.43 2°51.675 322.2 12.8 322 12.2
2012-03-15 08:04:47 51°17.445 2°51.659 322.7 12.8 322 11.9
2012-03-15 08:04:52 51°17.459 2°51.641 322.8 12.7 322 11.6
2012-03-15 08:04:57 51°17.473 2°51.624 322.2 12.9 321 11.4
2012-03-15 08:05:02 51°17.486 2°51.606 321.5 12.7 321 11
2012-03-15 08:05:07 51°17.5 2°51.588 321 12.8 321 11
2012-03-15 08:05:12 51°17.514 2°51.571 321 12.7 321 11
2012-03-15 08:05:17 51°17.527 2°51.553 320.7 12.6 320 10.9
2012-03-15 08:05:22 51°17.541 2°51.535 320.5 12.7 322 10.8
2012-03-15 08:05:27 51°17.555 2°51.517 321.1 12.8 322 11
2012-03-15 08:05:32 51°17.569 2°51.5 321.6 12.8 323 11.2
2012-03-15 08:05:37 51°17.583 2°51.483 322.4 12.7 324 11.1
2012-03-15 08:05:42 51°17.598 2°51.468 324.8 12.8 328 11
2012-03-15 08:05:47 51°17.613 2°51.452 327.2 12.9 327 10.9
2012-03-15 08:05:52 51°17.628 2°51.437 328.1 12.9 328 11
2012-03-15 08:05:57 51°17.643 2°51.423 328.9 12.9 329 11
2012-03-15 08:06:02 51°17.658 2°51.409 329.3 12.8 329 11
2012-03-15 08:06:08 51°17.677 2°51.392 329.9 12.9 330 11.1
2012-03-15 08:06:13 51°17.693 2°51.378 330.6 13 330 11.1
2012-03-15 08:06:17 51°17.705 2°51.366 331 13 330 11.3
2012-03-15 08:06:22 51°17.72 2°51.352 331.4 12.9 330 11.2
2012-03-15 08:06:27 51°17.735 2°51.337 331.3 12.8 330 11.1
2012-03-15 08:06:33 51°17.753 2°51.319 330.4 12.9 328 11.3
2012-03-15 08:06:37 51°17.766 2°51.307 330.1 12.9 328 11.5
2012-03-15 08:06:42 51°17.781 2°51.292 329.5 12.8 328 11.4
2012-03-15 08:06:47 51°17.796 2°51.277 328.8 12.8 328 11.5
2012-03-15 08:06:52 51°17.811 2°51.262 328.2 12.9 328 11.5
2012-03-15 08:06:57 51°17.827 2°51.247 328.3 12.9 329 11.7
2012-03-15 08:07:01 51°17.839 2°51.235 328.8 12.8 328 11.8
2012-03-15 08:07:07 51°17.857 2°51.217 328.8 12.8 328 12.1
2012-03-15 08:07:12 51°17.872 2°51.202 328.7 12.9 328 12.1
2012-03-15 08:07:17 51°17.887 2°51.186 328.5 12.9 328 12.3
2012-03-15 08:07:22 51°17.902 2°51.171 328.6 12.9 327 12.3
2012-03-15 08:07:27 51°17.917 2°51.155 328 12.8 326 12.5
2012-03-15 08:07:32 51°17.932 2°51.139 327.6 12.9 326 12.5
2012-03-15 08:07:37 51°17.946 2°51.123 327.2 12.9 326 12.7
2012-03-15 08:07:42 51°17.961 2°51.108 327.2 12.9 326 12.9
2012-03-15 08:07:47 51°17.976 2°51.092 327.4 12.9 326 13
2012-03-15 08:07:52 51°17.991 2°51.077 327.4 12.9 327 13.1
2012-03-15 08:07:57 51°18.006 2°51.061 327.4 12.9 326 13.3
2012-03-15 08:08:02 51°18.022 2°51.046 327.2 13 326 13.4
2012-03-15 08:08:07 51°18.036 2°51.03 327.1 12.9 325 13.5
2012-03-15 08:08:13 51°18.054 2°51.01 326.7 12.9 325 13.6
2012-03-15 08:08:17 51°18.065 2°50.997 326.2 12.9 325 13.7
2012-03-15 08:08:22 51°18.08 2°50.98 326.1 12.9 325 13.8
2012-03-15 08:08:27 51°18.095 2°50.964 325.9 12.9 324 13.9
2012-03-15 08:08:32 51°18.109 2°50.947 325.1 12.9 324 13.9
2012-03-15 08:08:37 51°18.123 2°50.93 324.1 12.9 322 13.9
2012-03-15 08:08:42 51°18.137 2°50.912 322.8 12.9 321 14.1
2012-03-15 08:08:47 51°18.15 2°50.893 321.2 12.8 319 14.1
2012-03-15 08:08:53 51°18.166 2°50.871 320.2 12.8 319 14.1
2012-03-15 08:08:57 51°18.177 2°50.856 319.2 12.8 318 14.2
2012-03-15 08:09:01 51°18.188 2°50.841 318.7 12.9 319 14.4
2012-03-15 08:09:07 51°18.204 2°50.818 318.5 12.8 317 14.4
2012-03-15 08:09:12 51°18.217 2°50.8 318 12.9 318 14.6
2012-03-15 08:09:17 51°18.23 2°50.78 317.9 12.8 318 14.6
2012-03-15 08:09:22 51°18.243 2°50.761 318 12.8 319 14.7
2012-03-15 08:09:27 51°18.256 2°50.742 318.8 12.8 319 14.7
2012-03-15 08:09:32 51°18.27 2°50.723 319.1 12.7 318 14.8
2012-03-15 08:09:37 51°18.283 2°50.704 319.2 12.8 318 14.8
2012-03-15 08:09:42 51°18.297 2°50.686 319.4 12.9 320 14.8
2012-03-15 08:09:47 51°18.31 2°50.668 320.7 12.9 321 15.1
2012-03-15 08:09:52 51°18.324 2°50.65 321.8 12.8 321 15.2
2012-03-15 08:09:57 51°18.339 2°50.633 323 12.8 323 15.2
2012-03-15 08:10:02 51°18.354 2°50.617 324.1 12.9 325 15.2
2012-03-15 08:10:07 51°18.369 2°50.601 325.4 12.9 327 15.4
2012-03-15 08:10:13 51°18.387 2°50.583 327.1 12.9 326 15.4
2012-03-15 08:10:17 51°18.399 2°50.57 327.4 12.8 327 15.3
2012-03-15 08:10:22 51°18.414 2°50.555 328.1 12.9 328 15.5
2012-03-15 08:10:27 51°18.429 2°50.54 328.2 12.9 328 15.5
2012-03-15 08:10:32 51°18.444 2°50.525 328.1 12.9 327 15.4
2012-03-15 08:10:37 51°18.459 2°50.509 327.9 12.9 327 15.6
2012-03-15 08:10:42 51°18.474 2°50.493 327.7 12.8 327 15.7
2012-03-15 08:10:47 51°18.489 2°50.478 328.2 12.9 327 15.5
2012-03-15 08:10:52 51°18.503 2°50.463 328.2 12.8 327 15.8
2012-03-15 08:10:57 51°18.518 2°50.446 328 12.8 326 15.8
2012-03-15 08:11:02 51°18.533 2°50.43 327.5 12.8 326 15.8
2012-03-15 08:11:07 51°18.548 2°50.415 327.4 12.9 326 16
2012-03-15 08:11:13 51°18.565 2°50.396 327 12.8 326 15.8
2012-03-15 08:11:17 51°18.577 2°50.383 326.7 12.8 325 15.8
2012-03-15 08:11:22 51°18.591 2°50.366 326.6 12.9 325 15.8
2012-03-15 08:11:27 51°18.606 2°50.35 326.4 12.9 325 15.7
2012-03-15 08:11:32 51°18.621 2°50.334 326.3 12.8 325 15.8
2012-03-15 08:11:37 51°18.636 2°50.318 326.2 12.8 325 15.6
2012-03-15 08:11:42 51°18.651 2°50.302 326.1 13 325 15.7
2012-03-15 08:11:47 51°18.665 2°50.285 325.9 12.9 325 15.7
2012-03-15 08:11:52 51°18.68 2°50.268 325.4 12.9 324 15.7
2012-03-15 08:11:57 51°18.694 2°50.252 325.1 13 324 15.4
2012-03-15 08:12:02 51°18.709 2°50.234 324.5 12.9 324 15.3
2012-03-15 08:12:07 51°18.723 2°50.217 324.2 13 323 15.2
2012-03-15 08:12:12 51°18.738 2°50.2 323.8 13 322 15.3
2012-03-15 08:12:17 51°18.751 2°50.182 323.4 12.9 322 15.1
2012-03-15 08:12:22 51°18.765 2°50.165 322.9 12.9 322 14.9
2012-03-15 08:12:27 51°18.78 2°50.147 322.3 12.9 321 14.7
2012-03-15 08:12:32 51°18.794 2°50.129 321.7 12.9 321 14.6
2012-03-15 08:12:37 51°18.807 2°50.11 320.9 12.9 320 14.5
2012-03-15 08:12:42 51°18.821 2°50.092 320.9 13 321 14.2
2012-03-15 08:12:47 51°18.835 2°50.073 320.7 13 320 14.3
2012-03-15 08:12:52 51°18.849 2°50.055 320.8 13 321 14.1
2012-03-15 08:12:57 51°18.863 2°50.038 321.4 12.9 321 14
2012-03-15 08:13:02 51°18.877 2°50.02 321.9 12.9 322 13.8
2012-03-15 08:13:07 51°18.891 2°50.002 322.3 13 322 13.8
2012-03-15 08:13:13 51°18.908 2°49.981 322.8 13 322 13.3
2012-03-15 08:13:17 51°18.92 2°49.967 322.7 12.9 322 13.3
2012-03-15 08:13:22 51°18.934 2°49.95 322.7 12.9 322 13.2
2012-03-15 08:13:27 51°18.948 2°49.933 322.8 13 323 13.3
2012-03-15 08:13:33 51°18.966 2°49.913 323.8 13 325 13
2012-03-15 08:13:37 51°18.978 2°49.899 325.1 13 325 12.8
2012-03-15 08:13:42 51°18.992 2°49.883 326 12.9 326 12.6
2012-03-15 08:13:47 51°19.007 2°49.868 326.7 12.9 328 12.3
2012-03-15 08:13:52 51°19.022 2°49.853 328.2 12.9 329 12.2
2012-03-15 08:13:57 51°19.038 2°49.838 329.6 12.9 329 12.2
2012-03-15 08:14:01 51°19.05 2°49.826 330.3 12.9 330 12.1
2012-03-15 08:14:07 51°19.069 2°49.81 331.1 12.9 331 12.2
2012-03-15 08:14:12 51°19.084 2°49.796 331.8 12.9 331 12.2
2012-03-15 08:14:17 51°19.1 2°49.782 332.4 12.9 331 12.1
2012-03-15 08:14:22 51°19.116 2°49.768 332.4 12.9 330 12.2
2012-03-15 08:14:27 51°19.132 2°49.754 331.8 13 330 12.6
2012-03-15 08:14:32 51°19.147 2°49.74 331.6 13 330 12.8
2012-03-15 08:14:37 51°19.163 2°49.726 331.3 13 330 13.2
2012-03-15 08:14:42 51°19.179 2°49.712 331.3 13 330 13.2
2012-03-15 08:14:47 51°19.194 2°49.697 331.5 12.9 330 13.4
2012-03-15 08:14:52 51°19.209 2°49.682 331.6 12.9 330 13.6
2012-03-15 08:14:57 51°19.225 2°49.668 331.8 13 330 13.6
2012-03-15 08:15:02 51°19.241 2°49.654 331.8 12.9 330 13.5
2012-03-15 08:15:08 51°19.259 2°49.636 331.1 12.9 329 13.4
2012-03-15 08:15:13 51°19.274 2°49.622 330.3 12.8 328 13.5
2012-03-15 08:15:17 51°19.287 2°49.61 330 13 328 13.6
2012-03-15 08:15:22 51°19.302 2°49.594 329.1 12.9 327 13.8
2012-03-15 08:15:27 51°19.316 2°49.578 328.3 12.8 326 14.1
2012-03-15 08:15:33 51°19.334 2°49.559 327.4 12.9 325 14.5
2012-03-15 08:15:37 51°19.346 2°49.546 326.6 12.9 325 14.9
2012-03-15 08:15:42 51°19.36 2°49.529 325.6 12.9 324 15
2012-03-15 08:15:47 51°19.374 2°49.512 324.5 12.9 322 15.2
2012-03-15 08:15:52 51°19.389 2°49.495 324.1 12.9 323 15.3
2012-03-15 08:15:57 51°19.403 2°49.478 324.1 12.9 323 15.5
2012-03-15 08:16:01 51°19.415 2°49.464 324.7 12.9 324 15.6
2012-03-15 08:16:07 51°19.432 2°49.444 325.1 12.9 324 15.7
2012-03-15 08:16:12 51°19.447 2°49.427 325.7 12.9 325 16
2012-03-15 08:16:17 51°19.461 2°49.411 326.3 12.9 325 16.2
2012-03-15 08:16:22 51°19.476 2°49.395 326.7 13 325 16.2
2012-03-15 08:16:27 51°19.491 2°49.379 326.8 13 326 16.1
2012-03-15 08:16:32 51°19.506 2°49.362 326.8 12.9 325 16.3
2012-03-15 08:16:37 51°19.521 2°49.346 326.8 13 326 16.2
2012-03-15 08:16:42 51°19.536 2°49.33 327 13 326 16.5
2012-03-15 08:16:47 51°19.551 2°49.315 327.1 13 327 16.5
2012-03-15 08:16:52 51°19.566 2°49.299 327.3 13 327 16.6
2012-03-15 08:16:57 51°19.581 2°49.284 327.6 13 328 16.7
2012-03-15 08:17:02 51°19.596 2°49.269 328.4 13 329 17
2012-03-15 08:17:07 51°19.612 2°49.254 329.1 13 330 17.4
2012-03-15 08:17:13 51°19.631 2°49.236 330.3 13.1 329 17.8
2012-03-15 08:17:17 51°19.643 2°49.225 330.8 13 330 18
2012-03-15 08:17:22 51°19.659 2°49.211 331.2 13 331 18.2
2012-03-15 08:17:27 51°19.675 2°49.197 331.6 13.1 331 18.5
2012-03-15 08:17:32 51°19.691 2°49.184 331.9 13 332 18.5
2012-03-15 08:17:37 51°19.707 2°49.17 331.9 13 331 18.8
2012-03-15 08:17:42 51°19.723 2°49.156 331.7 13 331 19
2012-03-15 08:17:47 51°19.739 2°49.141 330.9 13.1 330 19.2
2012-03-15 08:17:52 51°19.754 2°49.127 330.2 13.1 330 19.4
2012-03-15 08:17:57 51°19.77 2°49.112 329.6 13.1 329 19.7
2012-03-15 08:18:02 51°19.785 2°49.097 329 13.1 329 19.9
2012-03-15 08:18:07 51°19.8 2°49.081 328.7 13.1 328 20.2
2012-03-15 08:18:12 51°19.816 2°49.067 328.3 13.1 328 20.4
2012-03-15 08:18:17 51°19.831 2°49.051 328 13.1 328 20.5
2012-03-15 08:18:22 51°19.847 2°49.036 327.5 13 328 20.4
2012-03-15 08:18:27 51°19.862 2°49.02 327.1 13 327 20.9
2012-03-15 08:18:32 51°19.877 2°49.004 326.3 13.1 327 21.1
2012-03-15 08:18:37 51°19.892 2°48.987 325.5 13.1 325 21.2
2012-03-15 08:18:42 51°19.907 2°48.971 325.3 13.1 326 21.5
2012-03-15 08:18:47 51°19.922 2°48.954 325.2 13.1 325 21.8
2012-03-15 08:18:52 51°19.937 2°48.938 324.8 13.1 326 22.2
2012-03-15 08:18:57 51°19.952 2°48.922 325.1 13.1 326 22.3
2012-03-15 08:19:02 51°19.967 2°48.907 325.6 13 327 22.4